Time;durP1;ratioP1;P1;durP2;ratioP2;P2;SDS_P1;SDS_P2;PMS_P1;PMS_P2;Temp;Humidity;BMP_temperature;BMP_pressure;BME280_temperature;BME280_humidity;BME280_pressure;Samples;Min_cycle;Max_cycle;Signal;HPM_P1;HPM_P2
2022/09/17 00:01:46;;;;;;;0.80;0.80;;;23.00;65.60;;;;;;5004580;28;43695;-71
2022/09/17 00:04:14;;;;;;;0.87;0.87;;;23.10;65.10;;;;;;4978758;28;45036;-71
2022/09/17 00:06:42;;;;;;;0.87;0.87;;;23.30;64.70;;;;;;4978441;28;43480;-71
2022/09/17 00:09:10;;;;;;;0.80;0.80;;;23.30;64.60;;;;;;5005961;28;43448;-70
2022/09/17 00:11:40;;;;;;;0.90;0.90;;;23.20;64.50;;;;;;5001901;28;43621;-71
2022/09/17 00:14:14;;;;;;;0.97;0.97;;;23.20;64.80;;;;;;5003637;28;44632;-70
2022/09/17 00:16:43;;;;;;;0.80;0.80;;;23.10;65.20;;;;;;4991441;28;43465;-71
2022/09/17 00:19:13;;;;;;;0.87;0.87;;;23.00;65.30;;;;;;5009597;28;43340;-71
2022/09/17 00:21:41;;;;;;;0.70;0.70;;;23.00;65.30;;;;;;4984053;28;44610;-71
2022/09/17 00:24:10;;;;;;;0.83;0.83;;;23.00;65.50;;;;;;4991438;28;43451;-71
2022/09/17 00:26:38;;;;;;;0.80;0.80;;;22.90;65.50;;;;;;4996470;28;43422;-72
2022/09/17 00:29:06;;;;;;;0.83;0.83;;;22.90;65.90;;;;;;5007890;28;43432;-71
2022/09/17 00:31:36;;;;;;;0.70;0.70;;;22.90;65.80;;;;;;5004378;28;44548;-72
2022/09/17 00:34:04;;;;;;;0.70;0.70;;;23.00;65.50;;;;;;4990718;28;43455;-70
2022/09/17 00:36:34;;;;;;;0.83;0.83;;;23.00;65.30;;;;;;5002501;28;43814;-74
2022/09/17 00:39:07;;;;;;;0.83;0.83;;;23.00;65.20;;;;;;5006404;28;43535;-72
2022/09/17 00:41:35;;;;;;;0.80;0.80;;;23.00;65.50;;;;;;4999092;28;43923;-71
2022/09/17 00:44:36;;;;;;;0.90;0.90;;;23.00;65.50;;;;;;4986878;28;44406;-70
2022/09/17 00:47:07;;;;;;;0.67;0.67;;;23.00;65.30;;;;;;4999283;28;43436;-70
2022/09/17 00:49:35;;;;;;;0.80;0.80;;;23.00;65.50;;;;;;5007787;28;43389;-73
2022/09/17 00:52:06;;;;;;;0.73;0.73;;;22.90;65.50;;;;;;5006330;28;43616;-73
2022/09/17 00:54:34;;;;;;;0.80;0.80;;;22.90;65.90;;;;;;4995729;28;43401;-73
2022/09/17 00:57:01;;;;;;;0.80;0.80;;;22.90;65.80;;;;;;4990360;28;43775;-72
2022/09/17 00:59:29;;;;;;;0.57;0.57;;;22.80;65.70;;;;;;5001901;28;43450;-70
2022/09/17 01:01:57;;;;;;;0.60;0.60;;;22.80;65.80;;;;;;4992120;28;43874;-72
2022/09/17 01:04:27;;;;;;;0.70;0.70;;;22.80;65.90;;;;;;4999436;28;43748;-70
2022/09/17 01:07:00;;;;;;;0.70;0.70;;;22.80;66.20;;;;;;4977819;28;44145;-70
2022/09/17 01:09:30;;;;;;;0.87;0.87;;;22.80;66.10;;;;;;4993334;28;43932;-74
2022/09/17 01:12:20;;;;;;;0.80;0.80;;;22.90;65.50;;;;;;4990932;28;44283;-71
2022/09/17 01:14:56;;;;;;;0.70;0.70;;;23.10;65.10;;;;;;4995042;28;43452;-73
2022/09/17 01:17:29;;;;;;;0.70;0.70;;;23.20;64.50;;;;;;4998250;28;43457;-70
2022/09/17 01:20:22;;;;;;;0.80;0.80;;;23.30;64.50;;;;;;4994494;28;43965;-71
2022/09/17 01:22:59;;;;;;;0.80;0.80;;;23.20;64.50;;;;;;4989765;28;43960;-72
2022/09/17 01:25:31;;;;;;;0.80;0.80;;;23.10;64.90;;;;;;4997048;28;43756;-72
2022/09/17 01:28:21;;;;;;;0.70;0.70;;;23.00;65.20;;;;;;4981927;28;43541;-71
2022/09/17 01:31:18;;;;;;;0.70;0.70;;;23.00;65.30;;;;;;4986772;28;43511;-74
2022/09/17 01:33:51;;;;;;;0.77;0.77;;;22.90;65.30;;;;;;4993374;28;44002;-73
2022/09/17 01:36:24;;;;;;;1.10;0.87;;;22.90;65.60;;;;;;4991835;28;43758;-71
2022/09/17 01:38:54;;;;;;;0.70;0.70;;;22.80;65.80;;;;;;4994667;28;43491;-71
2022/09/17 01:41:27;;;;;;;0.70;0.70;;;22.80;65.80;;;;;;4976349;28;43525;-72
2022/09/17 01:43:57;;;;;;;0.80;0.80;;;22.80;65.70;;;;;;4993471;28;43879;-71
2022/09/17 01:46:29;;;;;;;0.80;0.80;;;22.80;65.80;;;;;;4973552;28;44784;-70
2022/09/17 01:49:01;;;;;;;0.60;0.60;;;22.80;65.90;;;;;;4991248;28;43357;-72
2022/09/17 01:51:31;;;;;;;0.70;0.70;;;22.70;66.10;;;;;;4980393;28;43466;-71
2022/09/17 01:54:01;;;;;;;0.70;0.70;;;22.80;65.90;;;;;;4977867;28;45365;-71
2022/09/17 01:56:31;;;;;;;0.70;0.70;;;22.90;65.50;;;;;;4980343;28;44384;-71
2022/09/17 01:59:01;;;;;;;0.73;0.73;;;23.10;65.10;;;;;;4987694;28;43422;-69
2022/09/17 02:01:31;;;;;;;0.60;0.60;;;23.20;64.70;;;;;;4993564;28;43913;-71
2022/09/17 02:04:01;;;;;;;0.67;0.67;;;23.20;64.50;;;;;;4996224;28;43754;-71
2022/09/17 02:06:31;;;;;;;0.70;0.70;;;23.10;64.60;;;;;;4991064;28;43464;-72
2022/09/17 02:09:01;;;;;;;0.90;0.90;;;23.10;65.00;;;;;;4986840;28;43765;-70
2022/09/17 02:11:28;;;;;;;0.80;0.80;;;23.00;65.30;;;;;;4987824;28;43561;-71
2022/09/17 02:13:58;;;;;;;0.80;0.80;;;22.90;65.40;;;;;;4997566;28;43612;-72
2022/09/17 02:16:27;;;;;;;0.70;0.70;;;22.90;65.40;;;;;;4998981;28;43365;-73
2022/09/17 02:19:09;;;;;;;0.50;0.50;;;22.90;65.50;;;;;;4995699;28;43482;-71
2022/09/17 02:21:45;;;;;;;0.77;0.77;;;22.80;65.70;;;;;;4973760;28;43963;-71
2022/09/17 02:24:17;;;;;;;0.80;0.80;;;22.80;66.10;;;;;;4979852;28;45293;-71
2022/09/17 02:26:47;;;;;;;1.13;1.10;;;22.80;65.90;;;;;;4995266;28;43798;-74
2022/09/17 02:29:19;;;;;;;0.70;0.70;;;22.80;65.80;;;;;;4995297;28;43538;-70
2022/09/17 02:31:47;;;;;;;0.80;0.80;;;22.70;65.80;;;;;;4998469;28;43438;-71
2022/09/17 02:34:17;;;;;;;0.87;0.77;;;22.70;66.00;;;;;;4991557;28;43833;-71
2022/09/17 02:36:45;;;;;;;0.80;0.80;;;22.70;66.10;;;;;;4992564;28;43372;-72
2022/09/17 02:39:13;;;;;;;0.73;0.73;;;22.80;65.80;;;;;;5001121;28;44045;-71
2022/09/17 02:41:45;;;;;;;0.80;0.80;;;22.90;65.40;;;;;;4998813;28;43409;-71
2022/09/17 02:44:18;;;;;;;0.80;0.80;;;23.00;65.20;;;;;;4992779;28;43943;-71
2022/09/17 02:46:54;;;;;;;0.90;0.90;;;22.90;65.00;;;;;;4998313;28;43864;-72
2022/09/17 02:49:38;;;;;;;0.70;0.70;;;22.90;65.40;;;;;;4990063;28;43921;-70
2022/09/17 02:52:10;;;;;;;0.80;0.80;;;22.90;65.40;;;;;;4992729;28;43504;-69
2022/09/17 02:54:41;;;;;;;0.70;0.70;;;22.90;65.30;;;;;;4971060;28;45579;-73
2022/09/17 02:57:14;;;;;;;0.80;0.80;;;22.80;65.40;;;;;;4998515;28;43526;-73
2022/09/17 02:59:46;;;;;;;0.70;0.70;;;22.80;65.70;;;;;;4993196;28;43444;-70
2022/09/17 03:02:17;;;;;;;0.90;0.90;;;22.80;65.80;;;;;;4979586;28;43779;-71
2022/09/17 03:04:47;;;;;;;0.70;0.70;;;22.80;65.50;;;;;;4990183;28;43669;-69
2022/09/17 03:07:15;;;;;;;0.80;0.63;;;22.90;65.10;;;;;;4980970;28;44904;-71
2022/09/17 03:09:43;;;;;;;0.73;0.73;;;23.10;64.80;;;;;;4990575;28;43541;-70
2022/09/17 03:12:10;;;;;;;0.60;0.60;;;23.10;65.40;;;;;;4990898;28;43696;-71
2022/09/17 03:14:38;;;;;;;0.90;0.90;;;23.10;64.70;;;;;;4996125;28;43791;-71
2022/09/17 03:17:06;;;;;;;0.90;0.90;;;23.00;64.90;;;;;;5001389;28;43896;-70
2022/09/17 03:19:34;;;;;;;1.40;1.30;;;22.90;65.10;;;;;;4994604;28;43372;-72
2022/09/17 03:22:03;;;;;;;3.23;2.00;;;22.80;65.30;;;;;;4992927;28;43413;-73
2022/09/17 03:24:31;;;;;;;10.00;3.30;;;22.80;65.40;;;;;;4980890;28;47036;-71
2022/09/17 03:26:59;;;;;;;1.90;1.70;;;22.80;65.60;;;;;;5006058;28;43996;-71
2022/09/17 03:29:27;;;;;;;5.50;2.87;;;22.70;65.60;;;;;;4992788;28;43463;-73
2022/09/17 03:31:55;;;;;;;7.27;3.50;;;22.70;65.80;;;;;;4981681;28;43705;-71
2022/09/17 03:34:23;;;;;;;8.20;3.10;;;22.70;65.80;;;;;;4992364;28;45612;-71
2022/09/17 03:36:51;;;;;;;4.07;2.77;;;22.70;65.80;;;;;;4983219;28;44508;-71
2022/09/17 03:39:20;;;;;;;7.40;3.30;;;22.70;65.80;;;;;;4997107;28;43396;-71
2022/09/17 03:41:48;;;;;;;9.93;3.80;;;22.60;65.90;;;;;;4992672;28;43456;-71
2022/09/17 03:44:17;;;;;;;13.00;4.03;;;22.60;66.10;;;;;;4993823;28;43671;-73
2022/09/17 03:46:45;;;;;;;13.10;4.77;;;22.70;65.70;;;;;;4970302;28;44722;-71
2022/09/17 03:49:13;;;;;;;9.30;4.17;;;22.90;65.40;;;;;;4979841;28;43538;-71
2022/09/17 03:51:41;;;;;;;11.13;4.30;;;23.00;64.90;;;;;;4994903;28;43419;-70
2022/09/17 03:54:09;;;;;;;10.70;4.90;;;23.10;64.80;;;;;;4994149;28;43873;-71
2022/09/17 03:56:38;;;;;;;12.77;4.80;;;23.10;64.70;;;;;;4992379;28;43512;-72
2022/09/17 03:59:06;;;;;;;12.13;4.60;;;23.00;64.80;;;;;;4983495;28;43534;-71
2022/09/17 04:01:35;;;;;;;11.93;5.00;;;22.90;65.10;;;;;;4993598;28;44093;-72
2022/09/17 04:04:03;;;;;;;9.37;4.50;;;22.80;65.30;;;;;;5003721;28;43725;-70
2022/09/17 04:06:31;;;;;;;8.43;3.77;;;22.80;65.30;;;;;;5001676;28;44019;-71
2022/09/17 04:08:59;;;;;;;10.97;4.43;;;22.80;65.50;;;;;;4991587;28;43971;-70
2022/09/17 04:11:27;;;;;;;9.87;4.63;;;22.70;65.50;;;;;;4993735;28;43440;-72
2022/09/17 04:13:56;;;;;;;10.90;4.77;;;22.70;65.80;;;;;;4996736;28;43604;-70
2022/09/17 04:16:24;;;;;;;10.60;4.80;;;22.70;65.80;;;;;;4995789;28;43864;-72
2022/09/17 04:18:52;;;;;;;8.10;4.40;;;22.70;65.80;;;;;;4989183;28;43859;-70
2022/09/17 04:21:20;;;;;;;9.47;4.60;;;22.60;65.70;;;;;;4975840;28;44413;-70
2022/09/17 04:23:48;;;;;;;8.13;4.63;;;22.60;65.90;;;;;;4992935;28;43609;-70
2022/09/17 04:26:16;;;;;;;12.10;4.97;;;22.60;66.10;;;;;;4992959;28;43377;-73
2022/09/17 04:28:44;;;;;;;8.63;4.80;;;22.60;65.80;;;;;;4970523;28;43475;-72
2022/09/17 04:31:13;;;;;;;8.10;4.30;;;22.60;65.80;;;;;;5003579;28;43882;-71
2022/09/17 04:33:41;;;;;;;11.07;4.70;;;22.60;65.80;;;;;;4996004;28;43879;-71
2022/09/17 04:36:09;;;;;;;8.83;4.40;;;22.60;66.10;;;;;;4991210;28;44069;-69
2022/09/17 04:38:37;;;;;;;9.17;4.80;;;22.60;66.10;;;;;;4995317;28;43408;-74
2022/09/17 04:41:06;;;;;;;7.13;4.10;;;22.70;65.90;;;;;;4978732;28;43511;-71
2022/09/17 04:43:34;;;;;;;9.80;5.10;;;22.80;65.40;;;;;;4993714;28;43929;-71
2022/09/17 04:46:02;;;;;;;9.97;4.80;;;23.00;65.00;;;;;;5002020;28;43553;-70
2022/09/17 04:48:31;;;;;;;6.67;4.00;;;23.10;64.60;;;;;;4997207;28;43966;-69
2022/09/17 04:50:59;;;;;;;9.67;4.53;;;23.10;64.50;;;;;;4997680;28;43462;-71
2022/09/17 04:53:27;;;;;;;11.70;5.13;;;23.00;64.60;;;;;;4994636;28;44014;-73
2022/09/17 04:55:55;;;;;;;10.20;4.73;;;22.90;64.90;;;;;;4999057;28;43436;-69
2022/09/17 04:58:23;;;;;;;12.57;5.40;;;22.80;65.20;;;;;;4994632;28;43493;-70
2022/09/17 05:00:51;;;;;;;9.47;4.70;;;22.80;65.20;;;;;;4997083;28;43450;-69
2022/09/17 05:03:19;;;;;;;5.63;3.97;;;22.80;65.40;;;;;;4972762;28;45888;-71
2022/09/17 05:05:48;;;;;;;8.93;4.53;;;22.70;65.40;;;;;;4987796;28;43382;-72
2022/09/17 05:08:16;;;;;;;9.43;4.50;;;22.70;65.60;;;;;;4998285;28;43436;-71
2022/09/17 05:10:44;;;;;;;5.63;4.07;;;22.70;65.80;;;;;;4978771;28;44227;-72
2022/09/17 05:13:12;;;;;;;6.43;4.13;;;22.70;65.70;;;;;;4972714;28;45550;-70
2022/09/17 05:15:39;;;;;;;6.77;4.23;;;22.60;65.70;;;;;;4994921;28;43511;-70
2022/09/17 05:18:07;;;;;;;6.80;4.20;;;22.60;65.80;;;;;;4998760;28;43607;-73
2022/09/17 05:20:35;;;;;;;7.37;4.23;;;22.60;66.10;;;;;;4975408;28;44048;-70
2022/09/17 05:23:05;;;;;;;7.70;4.17;;;22.60;66.00;;;;;;5000028;28;44131;-71
2022/09/17 05:25:32;;;;;;;6.67;4.20;;;22.60;65.80;;;;;;4981942;28;45042;-73
2022/09/17 05:28:01;;;;;;;6.20;4.40;;;22.60;65.90;;;;;;4995015;28;43461;-70
2022/09/17 05:30:29;;;;;;;7.10;4.07;;;22.60;65.90;;;;;;4998575;28;43461;-71
2022/09/17 05:33:00;;;;;;;5.60;4.27;;;22.50;66.10;;;;;;4993606;28;43874;-73
2022/09/17 05:35:28;;;;;;;7.47;4.57;;;22.60;66.00;;;;;;4992520;28;43400;-69
2022/09/17 05:37:58;;;;;;;6.90;4.30;;;22.70;65.60;;;;;;4973550;28;43403;-72
2022/09/17 05:40:27;;;;;;;6.27;4.00;;;22.90;65.10;;;;;;4987813;28;43596;-71
2022/09/17 05:42:58;;;;;;;6.93;4.33;;;23.00;64.80;;;;;;4998682;28;44095;-70
2022/09/17 05:45:26;;;;;;;7.70;4.10;;;23.00;64.60;;;;;;4975893;28;44940;-71
2022/09/17 05:47:55;;;;;;;7.17;4.00;;;22.90;64.70;;;;;;4975221;28;43519;-70
2022/09/17 05:50:23;;;;;;;4.87;3.87;;;22.90;65.00;;;;;;4996224;28;43422;-70
2022/09/17 05:52:51;;;;;;;7.87;4.20;;;22.80;65.40;;;;;;4989826;28;43930;-71
2022/09/17 05:55:21;;;;;;;6.50;3.90;;;22.70;65.40;;;;;;4989992;28;43966;-70
2022/09/17 05:57:50;;;;;;;4.77;3.70;;;22.70;65.40;;;;;;4995162;28;43427;-71
2022/09/17 06:00:18;;;;;;;4.57;3.57;;;22.70;65.60;;;;;;4991121;28;44015;-72
2022/09/17 06:02:46;;;;;;;5.43;3.80;;;22.60;65.60;;;;;;4988748;28;43603;-71
2022/09/17 06:05:14;;;;;;;6.23;3.93;;;22.60;66.10;;;;;;4993224;28;43398;-70
2022/09/17 06:07:42;;;;;;;6.17;4.30;;;22.60;65.80;;;;;;4991471;28;43479;-70
2022/09/17 06:10:10;;;;;;;5.00;3.63;;;22.60;65.80;;;;;;4997928;28;43519;-72
2022/09/17 06:12:38;;;;;;;4.17;3.33;;;22.60;65.90;;;;;;4992516;28;43815;-74
2022/09/17 06:15:08;;;;;;;6.63;3.90;;;22.50;65.90;;;;;;4995004;28;43447;-71
2022/09/17 06:17:36;;;;;;;5.73;3.70;;;22.50;66.20;;;;;;4993699;28;43505;-71
2022/09/17 06:20:05;;;;;;;5.23;3.80;;;22.50;66.10;;;;;;4996588;28;44288;-71
2022/09/17 06:22:33;;;;;;;4.57;3.70;;;22.70;65.80;;;;;;4993210;28;43604;-72
2022/09/17 06:25:02;;;;;;;4.27;3.40;;;22.80;65.20;;;;;;4994436;28;44027;-71
2022/09/17 06:27:31;;;;;;;4.23;3.83;;;22.90;64.80;;;;;;4994774;28;43378;-71
2022/09/17 06:29:59;;;;;;;5.30;3.30;;;23.00;64.70;;;;;;4990330;28;43450;-71
2022/09/17 06:32:29;;;;;;;4.90;3.67;;;22.90;64.70;;;;;;5006401;28;45858;-71
2022/09/17 06:34:57;;;;;;;6.70;4.03;;;22.80;64.90;;;;;;4998925;28;43453;-70
2022/09/17 06:37:27;;;;;;;4.10;3.30;;;22.70;65.30;;;;;;5005701;28;43503;-71
2022/09/17 06:39:55;;;;;;;5.57;3.57;;;22.70;65.40;;;;;;4987525;28;43754;-71
2022/09/17 06:42:23;;;;;;;4.80;3.73;;;22.70;65.50;;;;;;4999109;28;43761;-71
2022/09/17 06:44:51;;;;;;;3.93;3.53;;;22.60;65.50;;;;;;4991019;28;43945;-72
2022/09/17 06:47:19;;;;;;;3.87;3.47;;;22.60;65.70;;;;;;4987117;28;43467;-72
2022/09/17 06:49:48;;;;;;;3.57;3.27;;;22.50;65.90;;;;;;4972071;28;44015;-72
2022/09/17 06:52:16;;;;;;;3.73;3.30;;;22.50;65.80;;;;;;4998824;28;43795;-70
2022/09/17 06:54:44;;;;;;;3.63;3.00;;;22.50;66.60;;;;;;4974606;28;44745;-70
2022/09/17 06:57:12;;;;;;;3.50;2.97;;;22.50;65.90;;;;;;4993487;28;43416;-70
2022/09/17 06:59:41;;;;;;;3.80;3.40;;;22.50;66.10;;;;;;4990240;28;43400;-71
2022/09/17 07:02:09;;;;;;;3.57;3.20;;;22.40;66.20;;;;;;4990479;28;43840;-72
2022/09/17 07:04:37;;;;;;;4.37;3.20;;;22.50;66.10;;;;;;4996215;28;43360;-76
2022/09/17 07:07:07;;;;;;;3.30;2.90;;;22.40;66.00;;;;;;4981083;28;44618;-72
2022/09/17 07:09:35;;;;;;;3.73;3.43;;;22.40;66.10;;;;;;4999407;28;43859;-70
2022/09/17 07:12:07;;;;;;;4.07;3.60;;;22.40;66.30;;;;;;4977851;28;45629;-71
2022/09/17 07:14:35;;;;;;;3.00;2.80;;;22.40;66.20;;;;;;4995191;28;44080;-70
2022/09/17 07:17:03;;;;;;;3.70;3.40;;;22.50;65.90;;;;;;4999402;28;43493;-71
2022/09/17 07:19:31;;;;;;;3.53;3.23;;;22.70;65.50;;;;;;4995516;28;43878;-71
2022/09/17 07:21:59;;;;;;;3.90;3.43;;;22.80;65.00;;;;;;4992952;28;44087;-69
2022/09/17 07:24:28;;;;;;;3.30;3.00;;;22.90;64.80;;;;;;4995410;28;43471;-69
2022/09/17 07:27:00;;;;;;;4.73;3.20;;;22.90;64.00;;;;;;4994770;28;43420;-70
2022/09/17 07:29:30;;;;;;;4.00;3.60;;;22.80;64.40;;;;;;4996726;28;43613;-71
2022/09/17 07:31:58;;;;;;;3.50;3.30;;;22.70;64.70;;;;;;4997351;28;43847;-71
2022/09/17 07:34:26;;;;;;;3.53;3.00;;;22.70;65.20;;;;;;4999464;28;43552;-70
2022/09/17 07:36:54;;;;;;;3.20;3.00;;;22.70;65.30;;;;;;4973166;28;44106;-71
2022/09/17 07:39:22;;;;;;;3.07;2.80;;;22.60;65.20;;;;;;4998457;28;43421;-70
2022/09/17 07:41:51;;;;;;;3.00;2.80;;;22.60;65.40;;;;;;4993281;28;43839;-70
2022/09/17 07:44:21;;;;;;;4.17;3.23;;;22.50;65.60;;;;;;4994723;28;43484;-72
2022/09/17 07:46:49;;;;;;;2.63;2.53;;;22.50;66.00;;;;;;4992349;28;43453;-71
2022/09/17 07:49:17;;;;;;;2.90;2.73;;;22.50;65.80;;;;;;4992033;28;43368;-70
2022/09/17 07:51:45;;;;;;;3.40;3.20;;;22.60;65.50;;;;;;4993736;28;44030;-71
2022/09/17 07:54:13;;;;;;;3.30;2.93;;;22.60;65.20;;;;;;4999069;28;43429;-71
2022/09/17 07:56:41;;;;;;;3.03;2.83;;;22.60;65.20;;;;;;4989362;28;43539;-71
2022/09/17 07:59:10;;;;;;;3.03;2.83;;;22.60;65.60;;;;;;4989430;28;43490;-71
2022/09/17 08:01:39;;;;;;;3.50;3.20;;;22.60;65.50;;;;;;4974609;28;46577;-70
2022/09/17 08:04:07;;;;;;;2.97;2.77;;;22.60;65.40;;;;;;4995542;28;43433;-70
2022/09/17 08:06:36;;;;;;;2.90;2.80;;;22.50;65.50;;;;;;4971899;28;43401;-71
2022/09/17 08:09:05;;;;;;;3.20;2.90;;;22.50;65.70;;;;;;4995795;28;43486;-71
2022/09/17 08:11:33;;;;;;;2.67;2.47;;;22.50;66.00;;;;;;4993171;28;44010;-73
2022/09/17 08:14:22;;;;;;;2.70;2.60;;;22.50;66.00;;;;;;4988463;28;43812;-71
2022/09/17 08:16:56;;;;;;;2.50;2.40;;;22.40;65.80;;;;;;4988943;28;43460;-74
2022/09/17 08:19:24;;;;;;;2.37;2.27;;;22.40;65.90;;;;;;4998650;28;44455;-71
2022/09/17 08:21:52;;;;;;;2.87;2.67;;;22.40;66.00;;;;;;4991421;28;43926;-71
2022/09/17 08:24:20;;;;;;;2.50;2.40;;;22.40;66.30;;;;;;4982783;28;44646;-72
2022/09/17 08:26:48;;;;;;;3.10;2.90;;;22.40;66.00;;;;;;4976106;28;43500;-71
2022/09/17 08:29:15;;;;;;;2.90;2.73;;;22.60;65.70;;;;;;4998180;28;43673;-71
2022/09/17 08:31:45;;;;;;;2.53;2.40;;;22.70;65.30;;;;;;4994341;28;43757;-72
2022/09/17 08:34:13;;;;;;;3.17;2.63;;;22.80;65.10;;;;;;4990380;28;43551;-72
2022/09/17 08:36:41;;;;;;;3.20;2.97;;;22.70;65.00;;;;;;4979186;28;43450;-72
2022/09/17 08:39:10;;;;;;;2.70;2.50;;;22.60;65.10;;;;;;4989283;28;43491;-72
2022/09/17 08:41:52;;;;;;;2.83;2.63;;;22.50;65.40;;;;;;4988510;28;43805;-72
2022/09/17 08:44:27;;;;;;;2.50;2.40;;;22.50;65.80;;;;;;4997712;28;43947;-71
2022/09/17 08:47:00;;;;;;;2.50;2.40;;;22.50;65.80;;;;;;4993368;28;43443;-71
2022/09/17 08:49:33;;;;;;;2.60;2.50;;;22.40;65.70;;;;;;4996956;28;43394;-71
2022/09/17 08:52:11;;;;;;;2.60;2.50;;;22.40;65.90;;;;;;4993797;28;43610;-72
2022/09/17 08:54:41;;;;;;;2.60;2.50;;;22.40;66.00;;;;;;4999460;28;43475;-72
2022/09/17 08:57:16;;;;;;;2.40;2.30;;;22.40;66.30;;;;;;4994989;28;43472;-70
2022/09/17 08:59:45;;;;;;;2.30;2.20;;;22.40;66.20;;;;;;4988773;28;43420;-70
2022/09/17 09:02:20;;;;;;;2.13;2.03;;;22.30;66.10;;;;;;4992885;28;43971;-70
2022/09/17 09:04:58;;;;;;;2.10;2.00;;;22.30;66.10;;;;;;4997260;28;43546;-71
2022/09/17 09:07:27;;;;;;;2.60;2.40;;;22.30;66.40;;;;;;4997813;28;43417;-71
2022/09/17 09:10:00;;;;;;;2.50;2.30;;;22.30;66.40;;;;;;4990867;28;43464;-70
2022/09/17 09:12:28;;;;;;;2.57;2.37;;;22.40;66.00;;;;;;4994670;28;43606;-69
2022/09/17 09:14:58;;;;;;;2.30;2.20;;;22.60;65.70;;;;;;4975549;28;44855;-71
2022/09/17 09:17:29;;;;;;;3.20;2.43;;;22.70;65.30;;;;;;4991023;28;43405;-70
2022/09/17 09:19:57;;;;;;;2.20;2.10;;;22.80;65.10;;;;;;4995897;28;44080;-71
2022/09/17 09:22:45;;;;;;;2.60;2.50;;;22.70;64.80;;;;;;4992990;28;43608;-71
2022/09/17 09:25:23;;;;;;;2.20;2.10;;;22.60;65.10;;;;;;4994008;28;43481;-71
2022/09/17 09:28:05;;;;;;;2.23;2.10;;;22.60;65.40;;;;;;4987964;28;43958;-73
2022/09/17 09:30:43;;;;;;;2.40;2.30;;;22.50;65.70;;;;;;4979090;28;43429;-71
2022/09/17 09:33:14;;;;;;;2.17;2.07;;;22.50;65.80;;;;;;4996359;28;43595;-71
2022/09/17 09:35:42;;;;;;;2.43;2.27;;;22.40;65.80;;;;;;4988995;28;44017;-72
2022/09/17 09:38:18;;;;;;;2.73;2.57;;;22.40;65.90;;;;;;4975647;28;43549;-71
2022/09/17 09:40:48;;;;;;;2.13;2.03;;;22.40;66.20;;;;;;4987781;28;43496;-72
2022/09/17 09:43:18;;;;;;;2.10;2.00;;;22.30;66.10;;;;;;4997787;28;43919;-72
2022/09/17 09:45:57;;;;;;;1.87;1.77;;;22.30;66.00;;;;;;4986920;28;43506;-69
2022/09/17 09:48:29;;;;;;;2.07;1.97;;;22.30;66.00;;;;;;5002606;28;43379;-71
2022/09/17 09:51:06;;;;;;;2.00;1.90;;;22.30;66.10;;;;;;4994185;28;44810;-71
2022/09/17 09:53:39;;;;;;;2.17;2.07;;;22.30;66.50;;;;;;4976172;28;45408;-70
2022/09/17 09:56:18;;;;;;;2.00;1.90;;;22.30;66.40;;;;;;4994356;28;43645;-74
2022/09/17 09:58:46;;;;;;;1.93;1.83;;;22.40;66.10;;;;;;4975402;28;43413;-71
2022/09/17 10:01:15;;;;;;;2.27;2.17;;;22.60;65.60;;;;;;5004624;28;43925;-71
2022/09/17 10:03:45;;;;;;;1.53;1.53;;;22.70;65.30;;;;;;4993809;28;43990;-71
2022/09/17 10:06:13;;;;;;;2.33;2.23;;;22.70;65.00;;;;;;4986370;28;44964;-71
2022/09/17 10:08:42;;;;;;;1.97;1.87;;;22.60;65.10;;;;;;4989655;28;43476;-71
2022/09/17 10:11:19;;;;;;;1.97;1.87;;;22.60;65.30;;;;;;4982563;28;43788;-72
2022/09/17 10:13:47;;;;;;;1.80;1.80;;;22.50;65.70;;;;;;4990079;28;43807;-70
2022/09/17 10:16:19;;;;;;;1.70;1.70;;;22.50;65.80;;;;;;4970436;28;43964;-70
2022/09/17 10:18:49;;;;;;;2.13;2.03;;;22.40;65.60;;;;;;4996484;28;43362;-72
2022/09/17 10:21:21;;;;;;;1.93;1.70;;;22.40;65.80;;;;;;4984838;28;43439;-70
2022/09/17 10:23:49;;;;;;;1.77;1.77;;;22.40;66.10;;;;;;4987031;28;43601;-71
2022/09/17 10:26:22;;;;;;;1.67;1.67;;;22.30;66.10;;;;;;4986734;28;43509;-70
2022/09/17 10:28:53;;;;;;;1.80;1.80;;;22.30;66.10;;;;;;4986842;28;43429;-71
2022/09/17 10:31:21;;;;;;;1.80;1.70;;;22.30;66.10;;;;;;4988703;28;43478;-72
2022/09/17 10:34:11;;;;;;;1.70;1.60;;;22.30;66.10;;;;;;4972540;28;45630;-70
2022/09/17 10:36:41;;;;;;;1.80;1.70;;;22.30;66.50;;;;;;4987124;28;43325;-71
2022/09/17 10:39:19;;;;;;;1.60;1.60;;;22.30;66.20;;;;;;5000096;28;43385;-71
2022/09/17 10:41:53;;;;;;;2.30;2.20;;;22.40;65.90;;;;;;4994672;28;44139;-70
2022/09/17 10:44:22;;;;;;;1.80;1.80;;;22.60;65.50;;;;;;4992498;28;43596;-70
2022/09/17 10:46:50;;;;;;;1.50;1.50;;;22.70;65.20;;;;;;4988737;28;43789;-70
2022/09/17 10:49:27;;;;;;;1.63;1.63;;;22.70;65.00;;;;;;4989281;28;43448;-70
2022/09/17 10:52:04;;;;;;;1.70;1.60;;;22.60;65.10;;;;;;4976314;28;43569;-70
2022/09/17 10:54:48;;;;;;;1.50;1.50;;;22.50;65.30;;;;;;4971468;28;45771;-71
2022/09/17 10:57:19;;;;;;;1.80;1.80;;;22.50;65.70;;;;;;4991609;28;43437;-71
2022/09/17 10:59:55;;;;;;;1.50;1.50;;;22.40;65.60;;;;;;4992291;28;43951;-70
2022/09/17 11:02:40;;;;;;;1.70;1.60;;;22.40;65.70;;;;;;4991306;28;43381;-70
2022/09/17 11:05:22;;;;;;;1.97;1.87;;;22.30;65.70;;;;;;4992862;28;43750;-71
2022/09/17 11:07:52;;;;;;;1.80;1.70;;;22.30;66.00;;;;;;4992692;28;43484;-71
2022/09/17 11:10:23;;;;;;;1.60;1.60;;;22.30;67.00;;;;;;4998663;28;43503;-70
2022/09/17 11:13:03;;;;;;;1.83;1.50;;;22.30;66.10;;;;;;4998561;28;43356;-71
2022/09/17 11:15:37;;;;;;;1.70;1.50;;;22.30;66.10;;;;;;4995246;28;43663;-71
2022/09/17 11:18:21;;;;;;;1.60;1.60;;;22.30;66.10;;;;;;4999670;28;43493;-70
2022/09/17 11:21:02;;;;;;;1.60;1.50;;;22.20;66.50;;;;;;5005058;28;43916;-70
2022/09/17 11:24:03;;;;;;;1.60;1.50;;;22.30;66.40;;;;;;4996001;28;43515;-74
2022/09/17 11:26:32;;;;;;;1.77;1.67;;;22.40;66.00;;;;;;5005955;28;43823;-71
2022/09/17 11:29:06;;;;;;;1.80;1.70;;;22.50;65.50;;;;;;4975561;28;44599;-71
2022/09/17 11:31:37;;;;;;;1.70;1.70;;;22.60;65.10;;;;;;5001770;28;43428;-71
2022/09/17 11:34:18;;;;;;;1.57;1.47;;;22.70;65.10;;;;;;4996961;28;43539;-70
2022/09/17 11:36:50;;;;;;;1.73;1.67;;;22.60;65.10;;;;;;4997070;28;43600;-72
2022/09/17 11:39:21;;;;;;;1.77;1.60;;;22.50;65.40;;;;;;4989601;28;43476;-71
2022/09/17 11:41:49;;;;;;;2.07;1.40;;;22.40;65.80;;;;;;4990118;28;43509;-71
2022/09/17 11:44:20;;;;;;;1.70;1.60;;;22.40;65.80;;;;;;4995710;28;43444;-71
2022/09/17 11:46:49;;;;;;;1.30;1.30;;;22.40;65.80;;;;;;4995396;28;43950;-71
2022/09/17 11:49:22;;;;;;;1.73;1.63;;;22.30;65.80;;;;;;4982105;28;44775;-70
2022/09/17 11:51:54;;;;;;;1.43;1.40;;;22.30;66.00;;;;;;5003566;28;44039;-71
2022/09/17 11:54:23;;;;;;;1.60;1.50;;;22.30;66.40;;;;;;4989498;28;43356;-71
2022/09/17 11:56:52;;;;;;;1.70;1.60;;;22.40;66.20;;;;;;4994772;28;43605;-71
2022/09/17 11:59:22;;;;;;;1.30;1.30;;;22.50;65.80;;;;;;4973097;28;45036;-71
2022/09/17 12:01:52;;;;;;;1.50;1.43;;;22.50;65.70;;;;;;4997084;28;43535;-71
2022/09/17 12:04:32;;;;;;;1.33;1.33;;;22.40;65.60;;;;;;4999932;28;43352;-71
2022/09/17 12:07:03;;;;;;;1.50;1.50;;;22.40;66.00;;;;;;4993761;28;43911;-70
2022/09/17 12:09:32;;;;;;;1.30;1.30;;;22.40;66.10;;;;;;4989002;28;43406;-71
2022/09/17 12:12:02;;;;;;;1.40;1.37;;;22.40;65.90;;;;;;4996839;28;43564;-72
2022/09/17 12:14:31;;;;;;;1.43;1.43;;;22.40;66.00;;;;;;4998384;28;43540;-72
2022/09/17 12:17:00;;;;;;;1.30;1.30;;;22.30;66.00;;;;;;4999954;28;44017;-69
2022/09/17 12:19:30;;;;;;;1.30;1.30;;;22.30;66.50;;;;;;4977792;28;44673;-70
2022/09/17 12:22:04;;;;;;;1.40;1.40;;;22.30;66.40;;;;;;4994775;28;43452;-71
2022/09/17 12:24:32;;;;;;;1.63;1.53;;;22.30;66.30;;;;;;5001700;28;43388;-73
2022/09/17 12:27:14;;;;;;;1.40;1.40;;;22.30;66.30;;;;;;4973521;28;45612;-72
2022/09/17 12:30:03;;;;;;;1.20;1.20;;;22.20;66.40;;;;;;4982600;28;44370;-72
2022/09/17 12:33:10;;;;;;;1.30;1.30;;;22.20;66.70;;;;;;4999684;28;43465;-70
2022/09/17 12:35:58;;;;;;;1.70;1.60;;;22.30;66.50;;;;;;4999631;28;44474;-73
2022/09/17 12:38:57;;;;;;;1.27;1.27;;;22.50;66.20;;;;;;4999685;28;43617;-72
2022/09/17 12:41:33;;;;;;;1.40;1.40;;;22.60;65.70;;;;;;5007131;28;43432;-70
2022/09/17 12:44:15;;;;;;;1.40;1.40;;;22.60;65.50;;;;;;4978687;28;43523;-70
2022/09/17 12:46:57;;;;;;;1.30;1.27;;;22.50;65.60;;;;;;4995600;28;43453;-71
2022/09/17 12:49:46;;;;;;;1.33;1.33;;;22.50;65.90;;;;;;4997229;28;43620;-70
2022/09/17 12:52:17;;;;;;;1.20;1.20;;;22.40;66.40;;;;;;4975201;28;45021;-71
2022/09/17 12:55:15;;;;;;;1.40;1.40;;;22.40;66.30;;;;;;4992073;28;43435;-71
2022/09/17 12:57:47;;;;;;;1.30;1.30;;;22.30;66.30;;;;;;4993848;28;43976;-70
2022/09/17 13:00:15;;;;;;;1.40;1.40;;;22.30;66.40;;;;;;4997355;28;43604;-70
2022/09/17 13:02:45;;;;;;;1.50;1.40;;;22.20;66.50;;;;;;4995459;28;43654;-70
2022/09/17 13:05:45;;;;;;;1.30;1.30;;;22.20;66.90;;;;;;4999368;28;43456;-69
2022/09/17 13:08:20;;;;;;;1.47;1.40;;;22.30;66.60;;;;;;4984511;28;43741;-70